LGKO/KGS METAR and TAF weather

Enter ICAO airport designator
Station Type Date Time Source
LGKO METAR 2022/12/05 13:20 UTC NOAA

LGKO 051320Z 34010KT 9999 SCT020 18/09 Q1020


Station Type Date Time Source
LGKO Decoded METAR 2022/12/05 13:20 UTC NOAA

Kos Airport , Greece (LGKO) 36-47N 027-04E
Dec 05, 2022 - 08:20 AM EST / 2022.12.05 1320 UTC
Wind: from the NNW (340 degrees) at 12 MPH (10 KT):0
Visibility: greater than 7 mile(s):0
Sky conditions: partly cloudy
Temperature: 64 F (18 C)
Dew Point: 48 F (9 C)
Relative Humidity: 55%
Pressure (altimeter): 30.12 in. Hg (1020 hPa)
ob: LGKO 051320Z 34010KT 9999 SCT020 18/09 Q1020
cycle: 13

Station Type Date Time Source
LGKO TAF 2022/12/05 12:17 UTC NOAA

TAF LGKO 051100Z 0512/0612 34015KT 9999 FEW025
TEMPO 0516/0612 35007KT

Example: see airport list